createdAt,value
2019-03-25T00:02:24.299Z,9.00
2019-03-25T00:04:53.220Z,10.65
2019-03-25T00:07:22.116Z,15.88
2019-03-25T00:09:50.982Z,13.22
2019-03-25T00:12:19.856Z,7.42
2019-03-25T00:14:48.711Z,11.90
2019-03-25T00:17:17.619Z,13.38
2019-03-25T00:19:46.529Z,18.42
2019-03-25T00:22:15.401Z,13.22
2019-03-25T00:24:45.251Z,18.07
2019-03-25T00:27:14.110Z,11.97
2019-03-25T00:29:43.035Z,13.45
2019-03-25T00:32:11.903Z,13.60
2019-03-25T00:34:40.787Z,9.58
2019-03-25T00:37:09.651Z,9.20
2019-03-25T00:39:38.773Z,14.23
2019-03-25T00:42:07.638Z,14.15
2019-03-25T00:44:36.872Z,14.63
2019-03-25T00:47:05.735Z,21.73
2019-03-25T00:49:34.615Z,16.35
2019-03-25T00:52:03.487Z,12.20
2019-03-25T00:54:32.381Z,16.30
2019-03-25T00:57:01.241Z,20.10
2019-03-25T00:59:30.121Z,16.12
2019-03-25T01:02:02.059Z,18.62
2019-03-25T01:04:30.919Z,17.77
2019-03-25T01:06:59.802Z,14.38
2019-03-25T01:09:28.655Z,13.93
2019-03-25T01:11:57.755Z,17.60
2019-03-25T01:14:26.635Z,17.07
2019-03-25T01:16:55.511Z,16.20
2019-03-25T01:19:24.376Z,16.55
2019-03-25T01:21:53.251Z,13.95
2019-03-25T01:24:22.127Z,15.20
2019-03-25T01:26:51.241Z,16.80
2019-03-25T01:29:20.115Z,13.22
2019-03-25T01:31:48.988Z,16.40
2019-03-25T01:34:17.871Z,18.12
2019-03-25T01:36:46.987Z,20.15
2019-03-25T01:39:16.840Z,19.57
2019-03-25T01:41:45.980Z,18.45
2019-03-25T01:44:14.839Z,18.57
2019-03-25T01:46:43.699Z,24.40
2019-03-25T01:49:12.675Z,20.17
2019-03-25T01:51:41.700Z,18.48
2019-03-25T01:54:10.766Z,17.45
2019-03-25T01:56:39.850Z,19.55
2019-03-25T01:59:08.890Z,18.82
2019-03-25T02:01:38.011Z,16.95
2019-03-25T02:04:07.091Z,21.23
2019-03-25T02:06:36.101Z,16.00
2019-03-25T02:09:06.304Z,21.68
2019-03-25T02:11:35.476Z,16.75
2019-03-25T02:14:04.522Z,18.60
2019-03-25T02:16:35.741Z,16.02
2019-03-25T02:19:04.826Z,18.50
2019-03-25T02:21:34.122Z,21.17
2019-03-25T02:24:04.070Z,15.85
2019-03-25T02:26:33.106Z,23.42
2019-03-25T02:29:03.418Z,17.37
2019-03-25T02:31:32.506Z,23.20
2019-03-25T02:34:01.572Z,24.90
2019-03-25T02:36:30.869Z,17.23
2019-03-25T02:39:00.243Z,18.45
2019-03-25T02:41:29.353Z,13.60
2019-03-25T02:43:58.395Z,17.98
2019-03-25T02:46:27.457Z,15.15
2019-03-25T02:48:56.508Z,24.07
2019-03-25T02:51:25.802Z,17.52
2019-03-25T02:53:54.826Z,18.32
2019-03-25T02:56:24.200Z,24.12
2019-03-25T02:58:53.309Z,21.27
2019-03-25T03:01:22.350Z,19.00
2019-03-25T03:03:53.164Z,20.27
2019-03-25T03:06:22.227Z,17.00
2019-03-25T03:08:51.288Z,23.65
2019-03-25T03:11:20.372Z,20.27
2019-03-25T03:13:49.614Z,16.52
2019-03-25T03:16:18.652Z,23.62
2019-03-25T03:18:47.736Z,19.75
2019-03-25T03:21:16.799Z,19.32
2019-03-25T03:23:45.870Z,17.20
2019-03-25T03:26:14.887Z,20.30
2019-03-25T03:28:43.946Z,21.52
2019-03-25T03:31:13.394Z,20.20
2019-03-25T03:33:42.379Z,19.62
2019-03-25T03:36:11.406Z,14.70
2019-03-25T03:38:40.439Z,20.77
2019-03-25T03:41:09.534Z,20.57
2019-03-25T03:43:38.568Z,19.85
2019-03-25T03:46:07.592Z,20.82
2019-03-25T03:48:37.006Z,20.68
2019-03-25T03:51:06.285Z,23.35
2019-03-25T03:53:35.483Z,20.68
2019-03-25T03:56:12.832Z,14.60
2019-03-25T03:58:35.611Z,20.82
2019-03-25T04:01:04.472Z,23.32
2019-03-25T04:03:33.334Z,16.90
2019-03-25T04:06:02.210Z,17.00
2019-03-25T04:08:31.091Z,18.32
2019-03-25T04:11:00.192Z,21.95
2019-03-25T04:13:29.055Z,20.48
2019-03-25T04:16:01.194Z,18.48
2019-03-25T04:18:28.758Z,20.27
2019-03-25T04:20:57.641Z,19.80
2019-03-25T04:23:26.508Z,20.25
2019-03-25T04:25:55.415Z,23.62
2019-03-25T04:28:24.280Z,23.83
2019-03-25T04:30:53.425Z,20.80
2019-03-25T04:33:22.274Z,23.42
2019-03-25T04:35:51.135Z,19.67
2019-03-25T04:38:20.009Z,26.15
2019-03-25T04:40:48.860Z,18.77
2019-03-25T04:43:17.792Z,25.00
2019-03-25T04:45:46.652Z,17.57
2019-03-25T04:48:15.555Z,19.12
2019-03-25T04:50:44.428Z,22.20
2019-03-25T04:53:13.288Z,15.18
2019-03-25T04:55:42.206Z,16.27
2019-03-25T04:58:11.035Z,24.10
2019-03-25T05:00:39.978Z,18.52
2019-03-25T05:03:08.856Z,19.05
2019-03-25T05:05:37.723Z,20.45
2019-03-25T05:08:06.592Z,17.77
2019-03-25T05:10:35.707Z,20.37
2019-03-25T05:13:04.576Z,20.90
2019-03-25T05:15:33.443Z,17.80
2019-03-25T05:18:04.385Z,17.48
2019-03-25T05:20:33.256Z,15.85
2019-03-25T05:23:02.149Z,19.15
2019-03-25T05:25:31.016Z,20.30
2019-03-25T05:27:59.908Z,19.55
2019-03-25T05:30:29.024Z,16.05
2019-03-25T05:32:58.901Z,20.85
2019-03-25T05:35:27.769Z,18.50
2019-03-25T05:38:03.848Z,26.42
2019-03-25T05:40:33.082Z,22.65
2019-03-25T05:43:01.970Z,20.68
2019-03-25T05:45:31.076Z,24.05
2019-03-25T05:47:59.947Z,23.80
2019-03-25T05:50:28.983Z,20.50
2019-03-25T05:55:52.467Z,20.55
2019-03-25T05:58:21.576Z,17.95
2019-03-25T06:00:50.443Z,19.67
2019-03-25T06:03:19.337Z,24.43
2019-03-25T06:05:48.224Z,24.52
2019-03-25T06:08:17.096Z,25.02
2019-03-25T06:10:45.972Z,19.75
2019-03-25T06:13:14.857Z,18.17
2019-03-25T06:15:43.755Z,20.97
2019-03-25T06:18:12.628Z,23.00
2019-03-25T06:20:41.566Z,20.12
2019-03-25T06:23:10.468Z,23.73
2019-03-25T06:25:39.566Z,22.07
2019-03-25T06:28:08.436Z,17.23
2019-03-25T06:30:37.324Z,19.37
2019-03-25T06:33:12.325Z,17.40
2019-03-25T06:35:36.763Z,16.27
2019-03-25T06:38:05.651Z,18.25
2019-03-25T06:40:39.275Z,15.68
2019-03-25T06:43:08.165Z,22.45
2019-03-25T06:45:37.289Z,19.87
2019-03-25T06:48:06.402Z,17.23
2019-03-25T06:50:35.276Z,23.65
2019-03-25T06:53:04.140Z,23.07
2019-03-25T06:55:33.076Z,25.30
2019-03-25T06:58:01.993Z,20.77
2019-03-25T07:00:30.871Z,20.05
2019-03-25T07:02:59.908Z,23.77
2019-03-25T07:05:28.792Z,21.95
2019-03-25T07:07:57.656Z,20.88
2019-03-25T07:10:28.092Z,23.50
2019-03-25T07:12:56.959Z,21.97
2019-03-25T07:15:27.392Z,17.87
2019-03-25T07:17:56.521Z,22.25
2019-03-25T07:20:25.623Z,27.42
2019-03-25T07:22:54.484Z,23.20
2019-03-25T07:25:23.356Z,21.57
2019-03-25T07:27:52.219Z,21.93
2019-03-25T07:30:21.421Z,20.43
2019-03-25T07:32:51.500Z,22.73
2019-03-25T07:35:22.375Z,22.20
2019-03-25T07:37:50.995Z,24.67
2019-03-25T07:40:20.857Z,21.48
2019-03-25T07:42:49.930Z,21.90
2019-03-25T07:45:18.796Z,26.25
2019-03-25T07:47:47.679Z,27.15
2019-03-25T07:50:16.556Z,16.65
2019-03-25T07:52:45.489Z,18.95
2019-03-25T07:55:14.347Z,21.07
2019-03-25T07:57:48.190Z,14.98
2019-03-25T08:00:14.255Z,23.38
2019-03-25T08:02:43.237Z,12.07
2019-03-25T08:05:12.450Z,17.67
2019-03-25T08:07:41.307Z,15.83
2019-03-25T08:10:10.209Z,16.70
2019-03-25T08:12:39.161Z,18.17
2019-03-25T08:15:08.059Z,16.62
2019-03-25T08:17:36.993Z,13.58
2019-03-25T08:20:07.547Z,12.68
2019-03-25T08:22:36.392Z,14.98
2019-03-25T08:25:06.806Z,12.63
2019-03-25T08:27:35.659Z,11.83
2019-03-25T08:30:06.112Z,15.53
2019-03-25T08:32:36.011Z,12.58
2019-03-25T08:35:06.057Z,14.00
2019-03-25T08:37:34.919Z,12.78
2019-03-25T08:40:05.498Z,14.78
2019-03-25T08:42:34.351Z,14.93
2019-03-25T08:45:03.287Z,13.40
2019-03-25T08:47:32.392Z,15.03
2019-03-25T08:50:01.266Z,10.05
2019-03-25T08:52:30.128Z,14.70
2019-03-25T08:54:59.018Z,12.30
2019-03-25T08:57:27.879Z,13.28
2019-03-25T08:59:57.832Z,10.95
2019-03-25T09:02:28.311Z,13.53
2019-03-25T09:04:57.167Z,14.70
2019-03-25T09:07:26.027Z,11.78
2019-03-25T09:09:55.128Z,12.28
2019-03-25T09:12:23.986Z,8.23
2019-03-25T09:14:52.871Z,15.40
2019-03-25T09:17:21.751Z,10.38
2019-03-25T09:19:50.609Z,9.70
2019-03-25T09:22:19.771Z,9.80
2019-03-25T09:24:48.645Z,10.68
2019-03-25T09:27:17.751Z,10.65
2019-03-25T09:29:46.607Z,11.70
2019-03-25T09:32:15.509Z,12.33
2019-03-25T09:34:44.656Z,11.55
2019-03-25T09:37:13.526Z,8.98
2019-03-25T09:39:42.605Z,10.28
2019-03-25T09:42:11.456Z,8.93
2019-03-25T09:44:40.331Z,9.20
2019-03-25T09:47:09.418Z,9.75
2019-03-25T09:49:38.515Z,10.08
2019-03-25T09:52:07.534Z,6.60
2019-03-25T09:54:36.382Z,9.78
2019-03-25T09:57:05.548Z,8.10
2019-03-25T09:59:34.644Z,8.90
2019-03-25T10:02:03.761Z,9.90
2019-03-25T10:04:32.666Z,10.38
2019-03-25T10:07:02.054Z,13.45
2019-03-25T10:09:30.931Z,15.65
2019-03-25T10:12:01.853Z,10.75
2019-03-25T10:14:30.978Z,7.95
2019-03-25T10:16:59.823Z,9.68
2019-03-25T10:19:28.688Z,10.80
2019-03-25T10:21:57.552Z,11.53
2019-03-25T10:24:28.089Z,8.20
2019-03-25T10:26:57.067Z,14.58
2019-03-25T10:29:26.164Z,11.30
2019-03-25T10:31:55.026Z,16.35
2019-03-25T10:34:23.943Z,12.73
2019-03-25T10:36:52.799Z,12.58
2019-03-25T10:39:21.923Z,15.00
2019-03-25T10:41:50.779Z,12.60
2019-03-25T10:44:19.636Z,16.57
2019-03-25T10:46:48.508Z,14.75
2019-03-25T10:49:17.375Z,12.73
2019-03-25T10:51:47.351Z,11.73
2019-03-25T10:54:16.219Z,15.23
2019-03-25T10:56:49.207Z,10.98
2019-03-25T10:59:15.648Z,13.58
2019-03-25T11:01:44.982Z,11.15
2019-03-25T11:04:14.100Z,9.33
2019-03-25T11:06:43.007Z,14.18
2019-03-25T11:09:12.879Z,15.58
2019-03-25T11:11:41.971Z,10.68
2019-03-25T11:14:11.088Z,10.63
2019-03-25T11:16:40.180Z,12.60
2019-03-25T11:19:10.003Z,14.75
2019-03-25T11:21:39.112Z,9.30
2019-03-25T11:24:07.984Z,18.67
2019-03-25T11:26:37.086Z,16.65
2019-03-25T11:29:08.584Z,12.03
2019-03-25T11:31:36.512Z,13.15
2019-03-25T11:34:05.405Z,14.80
2019-03-25T11:36:34.264Z,8.95
2019-03-25T11:39:04.795Z,10.08
2019-03-25T11:41:33.963Z,8.03
2019-03-25T11:44:02.837Z,5.47
2019-03-25T11:46:31.701Z,5.03
2019-03-25T11:49:00.579Z,4.33
2019-03-25T11:51:29.451Z,4.83
2019-03-25T11:53:58.767Z,2.33
2019-03-25T11:56:27.662Z,4.22
2019-03-25T11:58:56.545Z,3.33
2019-03-25T12:01:25.474Z,3.25
2019-03-25T12:03:54.347Z,3.25
2019-03-25T12:06:23.204Z,3.40
2019-03-25T12:08:52.312Z,5.65
2019-03-25T12:11:21.231Z,4.42
2019-03-25T12:13:50.092Z,6.97
2019-03-25T12:16:18.952Z,7.05
2019-03-25T12:18:48.053Z,6.30
2019-03-25T12:21:16.907Z,10.05
2019-03-25T12:23:45.767Z,6.03
2019-03-25T12:26:14.628Z,10.10
2019-03-25T12:28:43.735Z,6.35
2019-03-25T12:31:12.586Z,8.13
2019-03-25T12:33:42.412Z,5.83
2019-03-25T12:36:11.264Z,4.87
2019-03-25T12:38:40.154Z,6.25
2019-03-25T12:41:09.016Z,5.92
2019-03-25T12:43:37.863Z,6.83
2019-03-25T12:46:06.728Z,7.90
2019-03-25T12:48:37.608Z,2.65
2019-03-25T12:51:06.540Z,5.45
2019-03-25T12:53:36.467Z,4.08
2019-03-25T12:56:05.352Z,3.55
2019-03-25T12:58:34.255Z,3.35
2019-03-25T13:01:03.148Z,3.00
2019-03-25T13:03:31.997Z,4.17
2019-03-25T13:06:00.880Z,3.67
2019-03-25T13:08:33.325Z,4.08
2019-03-25T13:11:00.540Z,5.00
2019-03-25T13:13:31.860Z,4.70
2019-03-25T13:16:01.097Z,3.95
2019-03-25T13:18:30.187Z,6.87
2019-03-25T13:20:59.803Z,6.12
2019-03-25T13:23:28.943Z,7.30
2019-03-25T13:25:57.800Z,3.10
2019-03-25T13:28:26.703Z,4.72
2019-03-25T13:30:58.711Z,5.55
2019-03-25T13:33:29.400Z,4.37
2019-03-25T13:36:01.809Z,3.42
2019-03-25T13:38:38.326Z,3.55
2019-03-25T13:41:24.501Z,6.08
2019-03-25T13:43:57.448Z,4.53
2019-03-25T13:46:33.768Z,5.50
2019-03-25T13:49:03.095Z,8.43
2019-03-25T13:51:32.807Z,3.75
2019-03-25T13:54:07.103Z,7.70
2019-03-25T13:56:44.763Z,6.35
2019-03-25T13:59:22.909Z,6.17
2019-03-25T14:01:54.739Z,4.28
2019-03-25T14:04:23.751Z,7.17
2019-03-25T14:06:53.400Z,4.45
2019-03-25T14:09:22.295Z,3.45
2019-03-25T14:11:53.270Z,4.40
2019-03-25T14:14:22.570Z,4.33
2019-03-25T14:16:55.662Z,5.90
2019-03-25T14:19:29.290Z,4.00
2019-03-25T14:22:00.280Z,3.12
2019-03-25T14:24:29.373Z,5.47
2019-03-25T14:27:02.052Z,5.70
2019-03-25T14:29:30.918Z,5.37
2019-03-25T14:31:59.856Z,2.85
2019-03-25T14:34:28.841Z,4.90
2019-03-25T14:36:57.705Z,2.85
2019-03-25T14:39:27.506Z,3.85
2019-03-25T14:42:03.194Z,3.52
2019-03-25T14:44:32.250Z,3.27
2019-03-25T14:47:01.404Z,4.50
2019-03-25T14:49:30.263Z,3.45
2019-03-25T14:52:00.340Z,3.85
2019-03-25T14:54:29.248Z,4.75
2019-03-25T14:56:58.110Z,4.05
2019-03-25T14:59:27.216Z,5.12
2019-03-25T15:01:56.123Z,7.70
2019-03-25T15:04:25.149Z,6.28
2019-03-25T15:06:54.136Z,6.55
2019-03-25T15:09:23.569Z,5.53
2019-03-25T15:11:52.568Z,4.70
2019-03-25T15:14:21.478Z,4.50
2019-03-25T15:16:50.436Z,7.95
2019-03-25T15:19:19.282Z,9.83
2019-03-25T15:21:48.151Z,6.60
2019-03-25T15:24:17.240Z,8.75
2019-03-25T15:26:46.813Z,8.35
2019-03-25T15:29:15.792Z,6.12
2019-03-25T15:31:44.757Z,8.40
2019-03-25T15:34:14.662Z,10.68
2019-03-25T15:36:44.189Z,8.93
2019-03-25T15:39:13.250Z,11.40
2019-03-25T15:41:43.199Z,9.53
2019-03-25T15:44:12.094Z,7.67
2019-03-25T15:46:40.991Z,7.37
2019-03-25T15:49:09.841Z,7.58
2019-03-25T15:51:38.699Z,5.50
2019-03-25T15:54:07.559Z,8.75
2019-03-25T15:56:36.428Z,7.67
2019-03-25T15:59:05.280Z,4.67
2019-03-25T16:01:34.147Z,8.43
2019-03-25T16:04:03.740Z,8.55
2019-03-25T16:06:32.663Z,9.28
2019-03-25T16:09:05.040Z,6.45
2019-03-25T16:11:33.984Z,6.62
2019-03-25T16:14:02.832Z,5.97
2019-03-25T16:16:31.703Z,5.55
2019-03-25T16:19:01.704Z,8.20
2019-03-25T16:21:30.636Z,4.90
2019-03-25T16:23:59.484Z,3.85
2019-03-25T16:26:28.405Z,6.08
2019-03-25T16:28:57.253Z,5.95
2019-03-25T16:31:26.115Z,9.15
2019-03-25T16:33:55.205Z,7.87
2019-03-25T16:36:24.277Z,7.90
2019-03-25T16:38:53.765Z,5.85
2019-03-25T16:41:22.615Z,8.73
2019-03-25T16:43:58.307Z,10.32
2019-03-25T16:46:28.836Z,6.03
2019-03-25T16:48:57.715Z,8.98
2019-03-25T16:51:26.792Z,6.65
2019-03-25T16:53:57.524Z,8.00
2019-03-25T16:56:26.401Z,4.72
2019-03-25T16:58:56.484Z,7.12
2019-03-25T17:01:25.343Z,6.22
2019-03-25T17:03:55.829Z,6.22
2019-03-25T17:06:25.169Z,6.08
2019-03-25T17:08:55.375Z,4.87
2019-03-25T17:11:24.481Z,4.42
2019-03-25T17:13:53.340Z,6.25
2019-03-25T17:16:22.204Z,3.72
2019-03-25T17:18:51.055Z,7.83
2019-03-25T17:21:20.659Z,6.30
2019-03-25T17:23:49.525Z,7.80
2019-03-25T17:26:18.619Z,6.17
2019-03-25T17:28:47.850Z,8.35
2019-03-25T17:31:21.249Z,8.88
2019-03-25T17:33:50.678Z,8.23
2019-03-25T17:36:20.279Z,5.58
2019-03-25T17:38:50.277Z,8.70
2019-03-25T17:41:19.124Z,4.37
2019-03-25T17:43:48.656Z,5.20
2019-03-25T17:46:17.516Z,4.30
2019-03-25T17:48:46.376Z,4.85
2019-03-25T17:51:15.236Z,5.78
2019-03-25T17:53:44.099Z,7.45
2019-03-25T17:56:12.953Z,5.12
2019-03-25T17:58:41.807Z,6.25
2019-03-25T18:01:12.287Z,7.00
2019-03-25T18:03:41.150Z,4.03
2019-03-25T18:06:11.216Z,3.58
2019-03-25T18:08:40.072Z,2.50
2019-03-25T18:11:08.920Z,2.00
2019-03-25T18:13:37.788Z,2.95
2019-03-25T18:16:06.712Z,3.30
2019-03-25T18:18:35.559Z,3.62
2019-03-25T18:21:04.430Z,3.00
2019-03-25T18:23:33.352Z,2.45
2019-03-25T18:26:02.210Z,2.75
2019-03-25T18:28:31.060Z,3.85
2019-03-25T18:30:59.980Z,3.15
2019-03-25T18:33:28.832Z,2.90
2019-03-25T18:35:57.716Z,3.52
2019-03-25T18:38:26.579Z,5.37
2019-03-25T18:40:55.462Z,6.75
2019-03-25T18:43:25.283Z,3.10
2019-03-25T18:45:54.144Z,3.47
2019-03-25T18:48:23.002Z,4.25
2019-03-25T18:50:52.104Z,4.30
2019-03-25T18:53:20.951Z,4.35
2019-03-25T18:55:49.801Z,6.67
2019-03-25T18:58:18.682Z,5.90
2019-03-25T19:00:47.519Z,5.70
2019-03-25T19:03:18.362Z,4.00
2019-03-25T19:05:46.919Z,4.35
2019-03-25T19:08:15.851Z,4.28
2019-03-25T19:10:44.728Z,5.75
2019-03-25T19:13:13.614Z,28.05
2019-03-25T19:15:43.419Z,22.93
2019-03-25T19:18:12.525Z,7.45
2019-03-25T19:20:42.369Z,7.50
2019-03-25T19:23:12.412Z,33.30
2019-03-25T19:25:41.265Z,9.75
2019-03-25T19:28:14.488Z,9.95
2019-03-25T19:30:44.287Z,9.20
2019-03-25T19:33:13.388Z,11.50
2019-03-25T19:35:42.479Z,10.00
2019-03-25T19:38:12.305Z,11.43
2019-03-25T19:40:41.175Z,13.85
2019-03-25T19:43:10.278Z,13.38
2019-03-25T19:45:39.135Z,10.85
2019-03-25T19:48:07.997Z,13.85
2019-03-25T19:50:36.901Z,16.55
2019-03-25T19:53:05.812Z,13.18
2019-03-25T19:55:34.937Z,15.05
2019-03-25T19:58:05.295Z,13.05
2019-03-25T20:00:36.084Z,17.67
2019-03-25T20:03:05.251Z,16.45
2019-03-25T20:05:35.132Z,16.27
2019-03-25T20:08:05.894Z,16.35
2019-03-25T20:10:35.914Z,15.90
2019-03-25T20:13:04.988Z,14.53
2019-03-25T20:15:45.456Z,15.70
2019-03-25T20:18:06.082Z,22.70
2019-03-25T20:20:34.919Z,24.52
2019-03-25T20:23:03.953Z,16.87
2019-03-25T20:25:32.866Z,17.80
2019-03-25T20:28:01.753Z,15.98
2019-03-25T20:30:31.206Z,14.45
2019-03-25T20:33:00.153Z,15.23
2019-03-25T20:35:29.912Z,16.93
2019-03-25T20:37:58.776Z,17.25
2019-03-25T20:40:28.845Z,21.27
2019-03-25T20:42:57.768Z,17.90
2019-03-25T20:45:26.628Z,16.25
2019-03-25T20:47:55.569Z,17.27
2019-03-25T20:50:24.499Z,17.10
2019-03-25T20:52:54.939Z,16.87
2019-03-25T20:55:23.862Z,15.00
2019-03-25T20:57:53.130Z,15.65
2019-03-25T21:00:23.690Z,15.23
2019-03-25T21:02:52.644Z,15.45
2019-03-25T21:05:21.515Z,17.87
2019-03-25T21:07:50.497Z,17.17
2019-03-25T21:10:19.367Z,18.07
2019-03-25T21:12:51.222Z,14.53
2019-03-25T21:15:22.207Z,15.72
2019-03-25T21:17:51.063Z,16.15
2019-03-25T21:20:19.922Z,15.25
2019-03-25T21:22:48.926Z,17.50
2019-03-25T21:25:19.412Z,16.57
2019-03-25T21:27:49.436Z,21.15
2019-03-25T21:30:19.268Z,18.27
2019-03-25T21:32:58.304Z,19.80
2019-03-25T21:35:19.971Z,19.92
2019-03-25T21:37:48.824Z,20.10
2019-03-25T21:40:17.725Z,20.82
2019-03-25T21:42:47.563Z,20.62
2019-03-25T21:45:17.276Z,21.05
2019-03-25T21:47:47.242Z,21.30
2019-03-25T21:50:16.179Z,20.82
2019-03-25T21:52:46.385Z,21.68
2019-03-25T21:55:15.360Z,17.95
2019-03-25T21:57:44.531Z,17.73
2019-03-25T22:00:13.676Z,19.37
2019-03-25T22:02:42.792Z,17.73
2019-03-25T22:05:11.676Z,17.35
2019-03-25T22:07:40.551Z,15.18
2019-03-25T22:10:09.599Z,17.07
2019-03-25T22:12:38.524Z,15.70
2019-03-25T22:15:11.238Z,17.48
2019-03-25T22:17:40.353Z,19.60
2019-03-25T22:20:27.843Z,22.62
2019-03-25T22:23:00.805Z,16.52
2019-03-25T22:25:29.707Z,19.40
2019-03-25T22:27:58.804Z,16.97
2019-03-25T22:30:27.900Z,15.15
2019-03-25T22:32:57.036Z,15.00
2019-03-25T22:35:29.138Z,12.13
2019-03-25T22:38:03.740Z,16.30
2019-03-25T22:40:34.092Z,15.70
2019-03-25T22:43:04.099Z,17.80
2019-03-25T22:45:33.187Z,15.40
2019-03-25T22:48:03.016Z,15.55
2019-03-25T22:50:31.891Z,18.45
2019-03-25T22:53:00.745Z,14.85
2019-03-25T22:55:29.832Z,13.95
2019-03-25T22:57:58.691Z,15.55
2019-03-25T23:00:29.268Z,15.83
2019-03-25T23:02:59.496Z,14.45
2019-03-25T23:05:28.365Z,16.32
2019-03-25T23:07:57.219Z,14.25
2019-03-25T23:10:26.156Z,12.98
2019-03-25T23:12:55.316Z,13.65
2019-03-25T23:15:24.195Z,15.45
2019-03-25T23:17:53.057Z,13.45
2019-03-25T23:20:21.913Z,11.25
2019-03-25T23:22:51.008Z,16.82
2019-03-25T23:25:19.865Z,13.05
2019-03-25T23:27:48.731Z,13.98
2019-03-25T23:30:17.585Z,15.78
2019-03-25T23:32:46.445Z,16.07
2019-03-25T23:35:15.301Z,15.68
2019-03-25T23:37:44.164Z,12.40
2019-03-25T23:40:13.016Z,16.82
2019-03-25T23:42:41.889Z,18.57
2019-03-25T23:45:10.976Z,19.50
2019-03-25T23:47:39.830Z,16.30
2019-03-25T23:50:08.695Z,17.95
2019-03-25T23:52:37.775Z,17.73
2019-03-25T23:55:06.724Z,20.32
2019-03-25T23:57:35.570Z,19.02
